Time;durP1;ratioP1;P1;durP2;ratioP2;P2;SDS_P1;SDS_P2;PMS_P1;PMS_P2;Temp;Humidity;BMP_temperature;BMP_pressure;BME280_temperature;BME280_humidity;BME280_pressure;Samples;Min_cycle;Max_cycle;Signal;HPM_P1;HPM_P2
2022/07/11 00:02:16;;;;;;;34.57;16.97;;;;;;;35.37;45.71;101191.84;6243153;23;20894;-74
2022/07/11 00:04:43;;;;;;;46.00;16.80;;;;;;;35.32;46.01;101191.88;6243296;23;20482;-74
2022/07/11 00:07:09;;;;;;;32.17;18.33;;;;;;;35.47;45.78;101189.88;6244373;23;20386;-74
2022/07/11 00:09:36;;;;;;;34.27;16.47;;;;;;;35.44;45.57;101182.34;6246953;22;20355;-74
2022/07/11 00:12:02;;;;;;;28.37;18.23;;;;;;;35.53;45.67;101186.06;6245017;23;20378;-74
2022/07/11 00:14:28;;;;;;;32.43;17.37;;;;;;;35.37;46.19;101189.13;6245093;23;20389;-74
2022/07/11 00:16:55;;;;;;;32.90;19.63;;;;;;;35.42;45.75;101183.69;6245390;23;20355;-74
2022/07/11 00:19:22;;;;;;;33.73;20.27;;;;;;;35.34;45.79;101176.19;6244916;23;20401;-73
2022/07/11 00:21:49;;;;;;;39.27;15.80;;;;;;;35.34;46.15;101178.88;6194839;23;20363;-75
2022/07/11 00:24:17;;;;;;;25.23;15.77;;;;;;;35.45;45.82;101178.56;6244918;23;20394;-75
2022/07/11 00:26:44;;;;;;;34.77;17.97;;;;;;;35.31;45.94;101169.47;6244947;23;20371;-75
2022/07/11 00:29:10;;;;;;;37.60;18.53;;;;;;;35.18;45.70;101172.81;6244772;22;20461;-74
2022/07/11 00:31:36;;;;;;;50.23;16.90;;;;;;;35.32;45.63;101163.00;6244429;23;20434;-74
2022/07/11 00:34:02;;;;;;;37.80;17.10;;;;;;;35.37;45.06;101162.16;6244878;23;20379;-74
2022/07/11 00:36:28;;;;;;;35.90;16.13;;;;;;;35.35;45.01;101162.41;6244708;23;20452;-73
2022/07/11 00:38:55;;;;;;;29.93;19.80;;;;;;;35.33;45.30;101164.59;6244873;23;20370;-73
2022/07/11 00:41:21;;;;;;;28.27;15.97;;;;;;;35.34;45.56;101163.50;6244817;23;20374;-73
2022/07/11 00:43:56;;;;;;;34.47;18.43;;;;;;;35.55;44.73;101155.31;6244566;23;20404;-74
2022/07/11 00:46:23;;;;;;;22.33;16.50;;;;;;;35.43;44.91;101161.88;6244822;23;20396;-73
2022/07/11 00:48:49;;;;;;;48.77;20.23;;;;;;;35.38;45.16;101161.06;6244547;23;20909;-73
2022/07/11 00:51:20;;;;;;;29.70;18.80;;;;;;;35.38;45.52;101147.59;6244838;23;20379;-73
2022/07/11 00:53:52;;;;;;;32.90;20.03;;;;;;;35.40;45.18;101148.09;6244581;23;20405;-75
2022/07/11 00:56:25;;;;;;;27.20;15.50;;;;;;;35.33;45.51;101147.63;6244719;23;20371;-75
2022/07/11 00:58:53;;;;;;;33.13;16.80;;;;;;;35.50;44.89;101137.25;6244619;23;20394;-74
2022/07/11 01:01:19;;;;;;;33.53;17.43;;;;;;;35.40;45.15;101150.78;6246340;22;20351;-74
2022/07/11 01:03:45;;;;;;;31.03;17.10;;;;;;;35.44;45.64;101150.00;6244712;23;20394;-74
2022/07/11 01:06:12;;;;;;;26.07;16.87;;;;;;;35.56;45.01;101152.31;6244548;23;20430;-74
2022/07/11 01:08:39;;;;;;;35.03;20.30;;;;;;;35.51;44.85;101146.97;6244366;23;20453;-74
2022/07/11 01:11:12;;;;;;;28.70;16.00;;;;;;;35.28;45.13;101141.16;6246460;22;20354;-73
2022/07/11 01:13:39;;;;;;;38.23;16.03;;;;;;;35.35;45.81;101138.13;6246589;22;20347;-73
2022/07/11 01:16:22;;;;;;;37.17;19.07;;;;;;;35.36;45.06;101137.09;6246430;22;20351;-74
2022/07/11 01:18:51;;;;;;;33.50;16.40;;;;;;;35.42;44.88;101122.50;6246002;22;20353;-75
2022/07/11 01:21:30;;;;;;;31.63;17.77;;;;;;;35.50;45.53;101118.38;6244307;23;20865;-75
2022/07/11 01:23:59;;;;;;;31.90;16.87;;;;;;;35.52;44.39;101113.50;6244237;23;20738;-74
2022/07/11 01:26:26;;;;;;;49.40;18.13;;;;;;;35.50;44.73;101118.38;6244231;23;20705;-74
2022/07/11 01:28:55;;;;;;;30.83;16.23;;;;;;;35.53;44.54;101113.19;6244215;22;20936;-74
2022/07/11 01:31:21;;;;;;;41.07;16.60;;;;;;;35.38;45.10;101112.53;6244395;23;20438;-74
2022/07/11 01:33:47;;;;;;;43.37;18.23;;;;;;;35.44;44.70;101109.53;6244299;23;20768;-76
2022/07/11 01:36:14;;;;;;;29.07;16.30;;;;;;;35.50;45.08;101113.78;6244519;23;20371;-76
2022/07/11 01:38:40;;;;;;;31.30;16.33;;;;;;;35.63;44.81;101109.63;6244110;23;20700;-75
2022/07/11 01:41:07;;;;;;;38.23;18.00;;;;;;;35.58;44.35;101108.84;6244177;23;20374;-76
2022/07/11 01:43:33;;;;;;;38.27;16.17;;;;;;;35.54;44.19;101105.91;6244263;23;20446;-75
2022/07/11 01:45:59;;;;;;;41.53;18.03;;;;;;;35.45;44.55;101103.03;6246395;22;20351;-75
2022/07/11 01:48:25;;;;;;;31.67;17.17;;;;;;;35.49;44.62;101106.78;6244063;23;20766;-74
2022/07/11 01:50:52;;;;;;;38.60;17.90;;;;;;;35.37;45.12;101105.50;6244091;23;20441;-74
2022/07/11 01:53:18;;;;;;;32.57;18.57;;;;;;;35.27;45.18;101095.59;6244143;23;20430;-74
2022/07/11 01:55:44;;;;;;;32.60;16.70;;;;;;;35.06;45.43;101097.66;6244118;23;20385;-75
2022/07/11 01:58:11;;;;;;;25.13;15.20;;;;;;;35.20;45.54;101095.13;6243969;23;20374;-75
2022/07/11 02:00:37;;;;;;;32.10;16.60;;;;;;;35.36;44.99;101096.63;6243913;23;20496;-74
2022/07/11 02:03:03;;;;;;;31.03;16.67;;;;;;;35.36;44.79;101099.31;6243990;23;20379;-74
2022/07/11 02:05:30;;;;;;;39.83;15.80;;;;;;;35.42;44.47;101097.34;6245987;22;20370;-74
2022/07/11 02:08:14;;;;;;;33.70;17.43;;;;;;;35.34;44.89;101104.16;6243985;23;20500;-74
2022/07/11 02:10:47;;;;;;;26.40;18.03;;;;;;;35.38;44.83;101099.03;6243984;23;20397;-73
2022/07/11 02:13:16;;;;;;;32.50;17.93;;;;;;;35.22;45.23;101099.13;6243799;23;20393;-74
2022/07/11 02:15:44;;;;;;;40.77;21.20;;;;;;;35.34;45.38;101101.47;6243943;23;20403;-75
2022/07/11 02:18:11;;;;;;;33.20;15.63;;;;;;;35.51;45.38;101114.59;6243873;23;20370;-75
2022/07/11 02:20:39;;;;;;;38.50;17.13;;;;;;;35.36;45.36;101098.50;6243842;23;20389;-74
2022/07/11 02:23:06;;;;;;;37.83;18.77;;;;;;;35.32;45.11;101111.75;6245709;22;20418;-74
2022/07/11 02:25:34;;;;;;;38.70;20.90;;;;;;;35.60;45.19;101106.69;6243842;23;20382;-74
2022/07/11 02:28:02;;;;;;;32.10;15.30;;;;;;;35.55;45.12;101120.25;6243720;23;20418;-74
2022/07/11 02:30:28;;;;;;;34.07;18.53;;;;;;;35.49;44.56;101111.38;6243211;22;20449;-74
2022/07/11 02:32:54;;;;;;;31.47;16.43;;;;;;;35.42;45.15;101119.81;6243647;23;20382;-73
2022/07/11 02:35:20;;;;;;;24.80;15.83;;;;;;;35.61;44.94;101116.41;6243848;23;20389;-74
2022/07/11 02:37:48;;;;;;;44.43;20.67;;;;;;;35.56;44.82;101116.44;6245425;22;20398;-73
2022/07/11 02:40:14;;;;;;;36.20;19.00;;;;;;;35.53;45.07;101120.50;6243785;23;20712;-75
2022/07/11 02:42:40;;;;;;;27.97;16.77;;;;;;;35.52;45.26;101118.88;6243527;23;20402;-76
2022/07/11 02:45:08;;;;;;;34.30;17.60;;;;;;;35.56;44.83;101127.25;6243767;23;20378;-76
2022/07/11 02:47:36;;;;;;;25.30;17.17;;;;;;;35.66;44.81;101108.22;6243504;23;20434;-76
2022/07/11 02:50:03;;;;;;;29.43;16.90;;;;;;;35.70;44.96;101125.47;6243621;23;20393;-74
2022/07/11 02:52:29;;;;;;;46.53;20.50;;;;;;;35.80;44.30;101115.41;6243586;23;20839;-73
2022/07/11 02:54:55;;;;;;;37.50;17.93;;;;;;;35.92;44.52;101111.53;6243417;23;20407;-73
2022/07/11 02:57:21;;;;;;;22.37;15.67;;;;;;;35.78;44.35;101112.16;6243627;23;20427;-75
2022/07/11 02:59:47;;;;;;;36.90;16.70;;;;;;;35.72;44.64;101102.50;6243461;23;20402;-75
2022/07/11 03:02:13;;;;;;;39.37;17.20;;;;;;;35.76;44.53;101106.25;6243557;23;20390;-75
2022/07/11 03:04:40;;;;;;;22.57;15.90;;;;;;;35.53;45.44;101115.91;6243618;23;20532;-76
2022/07/11 03:07:06;;;;;;;36.90;17.90;;;;;;;35.42;45.51;101103.63;6243383;23;20397;-75
2022/07/11 03:09:33;;;;;;;40.17;20.80;;;;;;;35.38;45.75;101104.44;6243487;23;20378;-73
2022/07/11 03:11:59;;;;;;;25.20;16.73;;;;;;;35.49;45.19;101105.97;6243431;23;20378;-73
2022/07/11 03:14:25;;;;;;;36.80;16.00;;;;;;;35.60;44.76;101107.47;6243349;23;20379;-74
2022/07/11 03:16:51;;;;;;;44.57;16.30;;;;;;;35.60;44.71;101098.59;6243373;23;20390;-73
2022/07/11 03:19:17;;;;;;;35.20;17.37;;;;;;;35.48;44.83;101112.44;6243363;23;20381;-73
2022/07/11 03:21:43;;;;;;;28.73;15.80;;;;;;;35.38;44.75;101110.63;6243398;23;20412;-75
2022/07/11 03:24:09;;;;;;;39.63;16.00;;;;;;;35.31;45.14;101106.66;6243403;23;20382;-75
2022/07/11 03:26:36;;;;;;;33.30;18.27;;;;;;;35.38;45.00;101104.44;6243472;23;20385;-75
2022/07/11 03:29:02;;;;;;;32.40;18.90;;;;;;;35.34;45.26;101114.16;6243380;22;20441;-75
2022/07/11 03:31:29;;;;;;;36.50;18.53;;;;;;;35.25;45.58;101108.56;6243131;23;20434;-74
2022/07/11 03:33:55;;;;;;;41.57;19.47;;;;;;;35.38;45.15;101102.53;6243509;23;20375;-74
2022/07/11 03:36:21;;;;;;;29.90;15.43;;;;;;;35.40;44.58;101104.94;6243343;23;20378;-73
2022/07/11 03:38:48;;;;;;;32.27;15.77;;;;;;;35.42;44.88;101108.16;6245341;22;20347;-73
2022/07/11 03:41:14;;;;;;;35.30;16.50;;;;;;;35.50;44.93;101105.69;6218270;23;20402;-75
2022/07/11 03:43:40;;;;;;;26.10;15.10;;;;;;;35.32;45.20;101100.16;6247652;22;20355;-75
2022/07/11 03:46:06;;;;;;;35.60;18.70;;;;;;;35.17;45.37;101114.53;6245322;23;20370;-75
2022/07/11 03:48:32;;;;;;;22.40;15.43;;;;;;;35.20;45.45;101111.31;6245246;23;20934;-76
2022/07/11 03:50:58;;;;;;;26.10;16.50;;;;;;;35.41;45.21;101110.03;6245124;23;20381;-74
2022/07/11 03:53:24;;;;;;;36.07;18.03;;;;;;;35.45;44.75;101108.44;6245169;23;20413;-74
2022/07/11 03:55:51;;;;;;;38.80;17.50;;;;;;;35.39;45.12;101114.13;6245243;23;20406;-73
2022/07/11 03:58:17;;;;;;;31.87;18.07;;;;;;;35.46;45.35;101114.63;6219879;23;20374;-75
2022/07/11 04:00:43;;;;;;;23.37;15.80;;;;;;;35.49;45.21;101119.47;6245227;23;20411;-75
2022/07/11 04:03:10;;;;;;;43.33;15.53;;;;;;;35.51;44.81;101112.69;6246856;22;20390;-75
2022/07/11 04:05:36;;;;;;;36.00;15.30;;;;;;;35.44;45.33;101112.22;6247208;22;20377;-75
2022/07/11 04:08:02;;;;;;;29.93;16.90;;;;;;;35.49;45.64;101106.78;6245164;23;20418;-75
2022/07/11 04:10:29;;;;;;;25.03;16.10;;;;;;;35.51;45.60;101104.59;6246961;23;20811;-74
2022/07/11 04:12:55;;;;;;;34.80;20.07;;;;;;;35.35;45.80;101113.88;6245103;23;20889;-74
2022/07/11 04:15:22;;;;;;;30.80;17.13;;;;;;;35.13;45.89;101111.63;6244953;23;20440;-75
2022/07/11 04:17:48;;;;;;;31.63;17.40;;;;;;;35.15;46.30;101111.34;6245088;23;20865;-75
2022/07/11 04:20:14;;;;;;;40.77;19.10;;;;;;;35.35;45.87;101115.75;6247105;22;20416;-73
2022/07/11 04:22:40;;;;;;;41.13;17.60;;;;;;;35.52;45.58;101118.88;6244875;23;20788;-73
2022/07/11 04:25:07;;;;;;;32.10;18.43;;;;;;;35.15;46.12;101128.31;6245092;23;20378;-74
2022/07/11 04:27:33;;;;;;;34.20;14.93;;;;;;;35.32;45.50;101132.53;6246598;22;20498;-75
2022/07/11 04:29:59;;;;;;;33.63;15.63;;;;;;;35.14;45.31;101128.59;6249608;22;20441;-76
2022/07/11 04:32:25;;;;;;;22.90;15.93;;;;;;;35.34;45.75;101117.66;6249833;22;20405;-75
2022/07/11 04:34:51;;;;;;;27.10;17.40;;;;;;;35.23;45.83;101111.53;6249796;22;20378;-75
2022/07/11 04:37:17;;;;;;;36.17;19.13;;;;;;;35.25;45.61;101124.75;6249936;22;20385;-73
2022/07/11 04:39:46;;;;;;;29.77;17.90;;;;;;;35.16;45.99;101127.22;6249589;22;20413;-74
2022/07/11 04:42:12;;;;;;;30.53;14.43;;;;;;;35.18;46.35;101125.06;6276955;22;20429;-73
2022/07/11 04:44:39;;;;;;;24.47;14.27;;;;;;;35.09;45.87;101129.44;6249841;22;20386;-75
2022/07/11 04:47:05;;;;;;;24.17;15.50;;;;;;;35.18;45.73;101135.06;6277121;22;20844;-75
2022/07/11 04:49:31;;;;;;;32.70;16.53;;;;;;;35.15;46.18;101141.00;6249803;22;20521;-76
2022/07/11 04:51:59;;;;;;;38.00;17.37;;;;;;;35.37;45.24;101127.91;6249541;22;20460;-75
2022/07/11 04:54:25;;;;;;;48.50;18.07;;;;;;;35.28;45.52;101137.66;6249754;22;20407;-74
2022/07/11 04:56:51;;;;;;;33.00;16.33;;;;;;;35.52;45.89;101127.00;6249853;22;20385;-74
2022/07/11 04:59:18;;;;;;;34.97;16.00;;;;;;;35.27;45.89;101144.16;6249343;22;20448;-73
2022/07/11 05:01:44;;;;;;;38.57;15.50;;;;;;;35.17;46.51;101146.91;6249761;22;20409;-76
2022/07/11 05:04:10;;;;;;;30.43;17.30;;;;;;;35.16;46.53;101150.69;6249573;22;20834;-76
2022/07/11 05:06:36;;;;;;;34.23;15.83;;;;;;;35.16;46.49;101148.78;6277242;22;20358;-75
2022/07/11 05:09:04;;;;;;;28.50;17.10;;;;;;;35.44;45.84;101143.78;6249531;22;20823;-76
2022/07/11 05:11:30;;;;;;;34.33;18.47;;;;;;;35.20;46.45;101149.84;6249496;22;20384;-76
2022/07/11 05:13:56;;;;;;;36.63;16.77;;;;;;;35.34;46.16;101150.03;6249496;22;20373;-76
2022/07/11 05:16:22;;;;;;;53.73;19.93;;;;;;;35.32;45.96;101140.63;6249488;22;20381;-75
2022/07/11 05:18:48;;;;;;;28.00;16.57;;;;;;;35.35;45.47;101148.13;6249410;22;20380;-74
2022/07/11 05:21:15;;;;;;;47.50;20.77;;;;;;;35.23;46.21;101149.28;6249505;22;20854;-73
2022/07/11 05:23:41;;;;;;;30.03;18.23;;;;;;;35.43;45.91;101142.19;6249300;22;20446;-73
2022/07/11 05:26:07;;;;;;;33.93;17.47;;;;;;;35.10;46.47;101149.13;6249485;22;20884;-76
2022/07/11 05:28:34;;;;;;;30.73;15.30;;;;;;;34.90;46.37;101137.34;6249286;22;20429;-76
2022/07/11 05:31:00;;;;;;;32.40;16.53;;;;;;;35.20;46.23;101146.34;6218821;23;20437;-75
2022/07/11 05:33:26;;;;;;;27.30;17.60;;;;;;;34.95;46.61;101140.03;6244348;23;20378;-74
2022/07/11 05:35:52;;;;;;;34.60;15.70;;;;;;;34.89;46.98;101137.63;6244254;23;20440;-75
2022/07/11 05:38:18;;;;;;;31.43;17.10;;;;;;;35.25;46.54;101135.53;6245806;22;20355;-74
2022/07/11 05:40:44;;;;;;;38.70;19.30;;;;;;;35.15;46.32;101139.09;6245952;22;20362;-75
2022/07/11 05:43:10;;;;;;;32.23;16.83;;;;;;;35.13;46.37;101140.47;6244250;23;20466;-74
2022/07/11 05:45:37;;;;;;;26.10;17.30;;;;;;;35.16;45.98;101146.09;6244139;23;20374;-74
2022/07/11 05:48:03;;;;;;;53.17;19.20;;;;;;;35.10;46.34;101141.03;6243871;23;20426;-74
2022/07/11 05:50:29;;;;;;;37.90;21.17;;;;;;;35.29;46.47;101136.56;6244150;23;20430;-76
2022/07/11 05:52:57;;;;;;;37.57;18.50;;;;;;;35.10;46.96;101144.53;6244044;23;20382;-75
2022/07/11 05:55:24;;;;;;;36.20;19.53;;;;;;;35.23;46.52;101135.81;6246299;22;20359;-74
2022/07/11 05:57:50;;;;;;;44.33;19.37;;;;;;;35.44;45.80;101133.81;6244110;23;20374;-75
2022/07/11 06:00:16;;;;;;;39.10;21.17;;;;;;;35.58;45.65;101142.03;6245962;22;20350;-75
2022/07/11 06:02:44;;;;;;;32.17;19.10;;;;;;;35.41;45.49;101128.91;6244079;23;20378;-77
2022/07/11 06:05:11;;;;;;;35.77;18.20;;;;;;;35.47;45.47;101130.53;6243707;23;20398;-77
2022/07/11 06:10:22;;;;;;;47.03;17.60;;;;;;;35.48;45.60;101137.56;6222867;23;20444;-76
2022/07/11 06:12:48;;;;;;;44.33;18.63;;;;;;;35.20;46.27;101143.66;6243865;23;20405;-75
2022/07/11 06:15:14;;;;;;;35.30;18.27;;;;;;;35.40;45.89;101158.88;6245699;22;20413;-77
2022/07/11 06:17:40;;;;;;;32.43;18.27;;;;;;;35.45;45.88;101157.00;6243543;23;20375;-77
2022/07/11 06:20:08;;;;;;;36.47;17.53;;;;;;;35.44;45.33;101152.69;6243748;23;20389;-74
2022/07/11 06:22:34;;;;;;;35.23;16.27;;;;;;;35.43;45.66;101159.16;6242175;23;20743;-76
2022/07/11 06:25:00;;;;;;;33.03;16.90;;;;;;;35.60;45.06;101152.53;6241604;23;20389;-76
2022/07/11 06:27:26;;;;;;;48.53;20.17;;;;;;;35.66;45.15;101157.63;6241558;23;20503;-76
2022/07/11 06:29:52;;;;;;;33.93;19.27;;;;;;;35.56;45.80;101167.72;6245015;22;20421;-76
2022/07/11 06:32:18;;;;;;;32.50;17.70;;;;;;;35.65;45.23;101168.69;6275016;22;20377;-74
2022/07/11 06:34:45;;;;;;;28.30;17.20;;;;;;;35.77;45.26;101171.81;6248467;22;20401;-74
2022/07/11 06:37:11;;;;;;;35.47;19.30;;;;;;;35.49;45.12;101184.22;6248881;22;20370;-73
2022/07/11 06:39:37;;;;;;;35.07;18.63;;;;;;;35.60;45.07;101190.31;6276140;22;20472;-74
2022/07/11 06:42:03;;;;;;;37.13;18.97;;;;;;;35.71;45.13;101187.25;6248798;22;20438;-74
2022/07/11 06:44:30;;;;;;;37.83;18.73;;;;;;;35.59;45.20;101192.22;6248790;22;20384;-75
2022/07/11 06:46:56;;;;;;;40.70;21.23;;;;;;;35.66;45.50;101202.69;6248765;22;20943;-72
2022/07/11 06:49:22;;;;;;;35.87;17.30;;;;;;;35.33;45.74;101196.97;6248689;22;20444;-74
2022/07/11 06:51:48;;;;;;;33.57;17.10;;;;;;;35.34;46.13;101197.78;6248424;22;20392;-74
2022/07/11 06:54:14;;;;;;;37.47;18.43;;;;;;;35.33;45.67;101207.75;6248895;22;20388;-74
2022/07/11 06:56:40;;;;;;;49.57;19.93;;;;;;;35.41;45.98;101215.25;6248690;22;20412;-75
2022/07/11 06:59:07;;;;;;;45.43;17.00;;;;;;;35.51;45.89;101214.41;6274581;22;20349;-76
2022/07/11 07:01:33;;;;;;;35.60;16.37;;;;;;;35.70;45.36;101212.66;6246272;22;20381;-76
2022/07/11 07:03:59;;;;;;;39.10;20.07;;;;;;;35.78;45.44;101224.72;6246360;22;20377;-76
2022/07/11 07:06:25;;;;;;;36.33;19.47;;;;;;;35.49;45.17;101222.78;6246202;22;20776;-77
2022/07/11 07:08:51;;;;;;;36.70;19.63;;;;;;;35.55;46.05;101226.25;6246295;22;20421;-76
2022/07/11 07:11:18;;;;;;;46.83;17.93;;;;;;;35.57;45.93;101224.09;6246283;22;20385;-74
2022/07/11 07:13:50;;;;;;;38.40;17.20;;;;;;;35.57;45.32;101229.47;6247279;22;20868;-76
2022/07/11 07:16:16;;;;;;;30.17;15.87;;;;;;;35.72;45.16;101233.94;6248771;22;20869;-74
2022/07/11 07:18:45;;;;;;;39.17;18.57;;;;;;;35.71;44.84;101233.13;6277965;22;20439;-76
2022/07/11 07:21:11;;;;;;;36.97;17.63;;;;;;;35.63;45.10;101235.66;6250699;22;20378;-74
2022/07/11 07:23:38;;;;;;;41.73;17.87;;;;;;;35.78;45.04;101236.31;6250393;22;20377;-74
2022/07/11 07:26:05;;;;;;;44.30;18.57;;;;;;;35.68;45.09;101231.03;6250674;22;20451;-74
2022/07/11 07:28:31;;;;;;;32.43;17.90;;;;;;;35.74;45.08;101240.69;6250422;22;20538;-74
2022/07/11 07:30:57;;;;;;;49.40;21.07;;;;;;;35.60;45.61;101244.28;6277267;22;20428;-75
2022/07/11 07:33:23;;;;;;;31.57;19.23;;;;;;;35.75;45.41;101247.69;6250523;22;20400;-76
2022/07/11 07:35:49;;;;;;;30.27;15.40;;;;;;;35.78;45.53;101247.13;6277771;22;20389;-74
2022/07/11 07:38:15;;;;;;;36.30;17.57;;;;;;;35.83;44.63;101248.97;6250445;22;20373;-76
2022/07/11 07:40:42;;;;;;;34.60;16.93;;;;;;;35.84;44.41;101255.19;6277939;22;20395;-74
2022/07/11 07:43:08;;;;;;;30.17;16.73;;;;;;;35.91;44.96;101261.91;6250358;22;20389;-73
2022/07/11 07:45:34;;;;;;;28.50;18.03;;;;;;;35.84;45.48;101266.78;6250502;22;20432;-75
2022/07/11 07:48:00;;;;;;;33.20;17.33;;;;;;;35.81;45.38;101267.34;6277777;22;20409;-76
2022/07/11 07:50:27;;;;;;;31.87;20.00;;;;;;;35.92;45.34;101268.94;6250414;22;20409;-74
2022/07/11 07:52:53;;;;;;;31.37;18.50;;;;;;;35.84;45.08;101276.78;6250387;22;20387;-75
2022/07/11 07:55:19;;;;;;;27.83;16.43;;;;;;;35.71;45.28;101275.53;6277559;22;20484;-74
2022/07/11 07:57:45;;;;;;;36.57;17.10;;;;;;;35.60;45.94;101285.56;6278042;22;20829;-74
2022/07/11 08:03:02;;;;;;;35.50;18.50;;;;;;;35.74;45.35;101283.88;6277580;22;20447;-74
2022/07/11 08:05:29;;;;;;;40.67;21.80;;;;;;;35.60;46.14;101287.47;6224875;22;20387;-75
2022/07/11 08:07:55;;;;;;;33.83;18.77;;;;;;;35.65;45.65;101285.53;6250136;22;20917;-74
2022/07/11 08:10:21;;;;;;;36.30;19.97;;;;;;;35.74;45.33;101280.38;6277179;22;20478;-74
2022/07/11 08:12:48;;;;;;;38.93;19.67;;;;;;;35.79;45.42;101285.75;6250244;22;20774;-74
2022/07/11 08:15:14;;;;;;;34.80;18.70;;;;;;;35.70;45.48;101287.41;6250190;22;20373;-75
2022/07/11 08:17:41;;;;;;;43.33;17.97;;;;;;;35.51;45.90;101290.75;6224841;22;20408;-75
2022/07/11 08:20:08;;;;;;;41.20;18.10;;;;;;;35.37;46.37;101294.34;6250204;22;20732;-74
2022/07/11 08:22:34;;;;;;;35.97;18.47;;;;;;;35.43;46.70;101295.94;6250083;22;20405;-74
2022/07/11 08:25:00;;;;;;;36.40;18.23;;;;;;;35.48;46.23;101293.19;6250002;22;20385;-74
2022/07/11 08:27:27;;;;;;;36.20;20.33;;;;;;;35.40;46.45;101293.75;6249727;22;20413;-74
2022/07/11 08:29:53;;;;;;;34.23;17.27;;;;;;;35.66;46.74;101294.44;6249800;22;20401;-80
2022/07/11 08:32:19;;;;;;;38.03;19.00;;;;;;;35.77;46.06;101290.59;6249111;22;20878;-78
2022/07/11 08:34:46;;;;;;;26.53;18.63;;;;;;;35.85;45.70;101299.97;6249854;22;20377;-79
2022/07/11 08:37:12;;;;;;;36.50;19.73;;;;;;;35.99;45.89;101296.41;6249814;22;20407;-78
2022/07/11 08:39:38;;;;;;;28.00;17.47;;;;;;;35.84;45.97;101298.38;6250577;22;20429;-76
2022/07/11 08:42:04;;;;;;;34.60;18.40;;;;;;;35.76;46.21;101299.78;6277355;22;20354;-74
2022/07/11 08:44:31;;;;;;;41.87;22.60;;;;;;;35.72;46.57;101307.63;6249707;22;20482;-77
2022/07/11 08:46:59;;;;;;;33.23;14.47;;;;;;;35.70;46.16;101298.19;6277340;22;20809;-74
2022/07/11 08:49:27;;;;;;;43.43;21.33;;;;;;;35.80;45.78;101295.44;6250847;22;20405;-75
2022/07/11 08:51:55;;;;;;;48.70;21.73;;;;;;;35.90;45.88;101292.66;6224859;22;20385;-76
2022/07/11 08:54:21;;;;;;;40.67;18.33;;;;;;;36.05;45.69;101297.97;6249108;22;20386;-76
2022/07/11 08:56:52;;;;;;;36.70;21.40;;;;;;;35.90;45.44;101294.53;6249735;22;20896;-75
2022/07/11 08:59:19;;;;;;;37.53;18.33;;;;;;;35.81;45.96;101294.34;6249395;22;20810;-75
2022/07/11 09:01:47;;;;;;;28.80;16.80;;;;;;;35.97;46.16;101290.50;6249813;22;20393;-75
2022/07/11 09:04:15;;;;;;;32.00;16.63;;;;;;;35.95;45.77;101303.44;6277213;22;20358;-75
2022/07/11 09:06:41;;;;;;;33.60;18.10;;;;;;;35.71;46.15;101305.22;6249477;22;20722;-76
2022/07/11 09:09:07;;;;;;;29.93;16.50;;;;;;;35.74;46.01;101308.16;6249581;22;20425;-75
2022/07/11 09:11:54;;;;;;;33.57;20.43;;;;;;;35.64;46.47;101304.72;6249411;22;20436;-75
2022/07/11 09:14:25;;;;;;;31.87;18.47;;;;;;;35.85;46.38;101298.09;6249397;22;20389;-76
2022/07/11 09:16:56;;;;;;;31.70;16.30;;;;;;;35.79;46.21;101301.94;6277100;22;20419;-76
2022/07/11 09:19:30;;;;;;;26.50;17.33;;;;;;;35.85;45.90;101308.06;6249521;22;20374;-74
2022/07/11 09:27:45;;;;;;;37.37;17.10;;;;;;;35.80;45.91;101303.53;6276408;22;20793;-76
2022/07/11 09:30:26;;;;;;;35.20;15.80;;;;;;;35.85;45.73;101305.38;6249158;22;20452;-76
2022/07/11 09:32:55;;;;;;;36.10;16.90;;;;;;;35.63;46.12;101312.00;6249353;22;20381;-76
2022/07/11 09:35:23;;;;;;;38.40;17.43;;;;;;;35.40;46.23;101299.16;6249412;22;20377;-76
2022/07/11 09:37:50;;;;;;;25.23;16.00;;;;;;;35.51;46.12;101296.16;6249215;22;20917;-75
2022/07/11 09:40:20;;;;;;;78.60;19.73;;;;;;;35.59;46.72;101299.34;6276444;22;20385;-75
2022/07/11 09:42:48;;;;;;;38.27;15.93;;;;;;;35.57;46.34;101296.94;6249453;22;20931;-76
2022/07/11 09:45:16;;;;;;;32.17;17.57;;;;;;;35.78;45.95;101300.28;6249171;22;20374;-76
2022/07/11 09:47:53;;;;;;;25.67;18.60;;;;;;;36.05;45.19;101302.56;6249132;22;20423;-76
2022/07/11 09:50:26;;;;;;;34.97;16.30;;;;;;;36.14;44.56;101292.75;6249095;22;20377;-76
2022/07/11 09:53:15;;;;;;;31.23;15.20;;;;;;;36.07;44.91;101292.28;6276803;22;20378;-75
2022/07/11 09:55:46;;;;;;;33.80;16.37;;;;;;;36.04;44.61;101287.47;6249287;22;20404;-75
2022/07/11 09:58:16;;;;;;;31.10;17.57;;;;;;;36.26;44.95;101289.69;6276572;22;20350;-76
2022/07/11 10:00:43;;;;;;;26.97;15.73;;;;;;;36.22;44.52;101280.56;6249023;22;20381;-76
2022/07/11 10:03:12;;;;;;;29.37;17.20;;;;;;;36.11;44.61;101276.34;6248947;22;20370;-75
2022/07/11 10:05:38;;;;;;;31.27;14.50;;;;;;;36.01;44.74;101269.91;6248861;22;20383;-75
2022/07/11 10:08:06;;;;;;;27.73;17.07;;;;;;;36.17;45.13;101281.41;6276478;22;20401;-75
2022/07/11 10:10:33;;;;;;;34.77;16.80;;;;;;;36.10;45.36;101280.13;6248766;22;20494;-75
2022/07/11 10:13:00;;;;;;;39.73;16.40;;;;;;;36.22;44.46;101278.66;6276545;22;20834;-75
2022/07/11 10:15:34;;;;;;;50.00;18.07;;;;;;;36.20;44.18;101280.00;6248820;22;20715;-75
2022/07/11 10:18:06;;;;;;;26.57;13.63;;;;;;;36.04;44.17;101279.38;6248757;22;20444;-76
2022/07/11 10:20:48;;;;;;;32.07;15.87;;;;;;;36.00;44.43;101272.91;6248931;22;20408;-76
2022/07/11 10:23:26;;;;;;;38.43;17.40;;;;;;;36.00;44.92;101268.31;6276403;22;20357;-76
2022/07/11 10:26:06;;;;;;;29.97;14.50;;;;;;;36.21;45.29;101257.31;6248769;22;20377;-76
2022/07/11 10:28:45;;;;;;;34.53;17.87;;;;;;;36.40;44.02;101263.66;6248765;22;20421;-75
2022/07/11 10:31:19;;;;;;;29.67;16.30;;;;;;;35.91;44.55;101261.91;6243282;23;20437;-75
2022/07/11 10:34:10;;;;;;;45.43;19.83;;;;;;;36.16;44.80;101252.00;6243624;23;20456;-74
2022/07/11 10:36:46;;;;;;;40.67;17.77;;;;;;;36.19;44.67;101251.41;6243459;23;20373;-75
2022/07/11 10:39:29;;;;;;;44.83;19.07;;;;;;;36.27;44.49;101258.88;6243423;23;20747;-74
2022/07/11 10:42:00;;;;;;;42.47;17.90;;;;;;;36.54;44.35;101251.06;6243454;23;20402;-77
2022/07/11 10:44:28;;;;;;;36.97;19.00;;;;;;;36.52;43.85;101258.66;6243694;23;20379;-76
2022/07/11 10:46:55;;;;;;;35.73;16.47;;;;;;;36.34;44.46;101245.88;6243904;23;20374;-76
2022/07/11 10:49:42;;;;;;;30.47;14.80;;;;;;;36.39;44.24;101255.78;6243387;23;20457;-75
2022/07/11 10:52:09;;;;;;;27.73;15.77;;;;;;;36.60;44.33;101251.81;6243226;23;20410;-74
2022/07/11 10:54:48;;;;;;;27.53;16.20;;;;;;;36.59;44.10;101251.03;6243511;23;20379;-75
2022/07/11 10:57:27;;;;;;;30.73;13.53;;;;;;;36.52;44.01;101261.38;6243348;23;20458;-76
2022/07/11 11:00:06;;;;;;;25.50;14.67;;;;;;;36.73;43.46;101253.03;6243457;23;20394;-76
2022/07/11 11:03:06;;;;;;;28.80;13.40;;;;;;;36.56;43.73;101243.47;6243359;23;20492;-75
2022/07/11 11:05:54;;;;;;;32.87;14.97;;;;;;;36.44;44.41;101253.06;6243427;23;20448;-75
2022/07/11 11:08:35;;;;;;;36.10;16.97;;;;;;;36.62;43.77;101249.63;6243408;23;20808;-76
2022/07/11 11:11:23;;;;;;;30.50;16.40;;;;;;;36.65;43.83;101253.63;6245558;22;20731;-77
2022/07/11 11:14:18;;;;;;;34.77;16.70;;;;;;;36.78;44.02;101247.56;6243362;23;20387;-75
2022/07/11 11:16:45;;;;;;;22.63;14.93;;;;;;;36.74;43.41;101243.81;6243459;23;20394;-76
2022/07/11 11:19:48;;;;;;;35.43;16.13;;;;;;;36.66;43.55;101244.47;6243372;23;20386;-75
2022/07/11 11:22:19;;;;;;;24.20;16.80;;;;;;;36.78;43.52;101242.97;6245407;22;20355;-76
2022/07/11 11:24:48;;;;;;;24.60;13.83;;;;;;;36.65;43.36;101240.97;6245295;22;20355;-75
2022/07/11 11:27:25;;;;;;;31.93;17.00;;;;;;;36.53;43.89;101235.97;6245165;22;20417;-77